sensor_id;sensor_type;location;lat;lon;timestamp;P1;durP1;ratioP1;P2;durP2;ratioP2
54171;SDS011;40076;52.354;4.970;2022-12-18T00:00:41;107.70;;;35.25;;
54171;SDS011;40076;52.354;4.970;2022-12-18T00:03:07;113.93;;;36.72;;
54171;SDS011;40076;52.354;4.970;2022-12-18T00:05:33;109.20;;;34.42;;
54171;SDS011;40076;52.354;4.970;2022-12-18T00:07:58;105.78;;;34.22;;
54171;SDS011;40076;52.354;4.970;2022-12-18T00:10:24;106.20;;;34.35;;
54171;SDS011;40076;52.354;4.970;2022-12-18T00:12:49;112.65;;;32.70;;
54171;SDS011;40076;52.354;4.970;2022-12-18T00:15:15;107.80;;;34.28;;
54171;SDS011;40076;52.354;4.970;2022-12-18T00:17:40;101.50;;;35.60;;
54171;SDS011;40076;52.354;4.970;2022-12-18T00:20:06;102.28;;;33.58;;
54171;SDS011;40076;52.354;4.970;2022-12-18T00:22:31;105.57;;;35.22;;
54171;SDS011;40076;52.354;4.970;2022-12-18T00:24:57;104.20;;;34.63;;
54171;SDS011;40076;52.354;4.970;2022-12-18T00:27:22;99.25;;;34.70;;
54171;SDS011;40076;52.354;4.970;2022-12-18T00:29:48;105.03;;;34.25;;
54171;SDS011;40076;52.354;4.970;2022-12-18T00:32:13;106.57;;;35.50;;
54171;SDS011;40076;52.354;4.970;2022-12-18T00:34:38;108.75;;;36.15;;
54171;SDS011;40076;52.354;4.970;2022-12-18T00:37:04;102.75;;;35.22;;
54171;SDS011;40076;52.354;4.970;2022-12-18T00:39:29;104.85;;;32.25;;
54171;SDS011;40076;52.354;4.970;2022-12-18T00:41:54;97.05;;;33.85;;
54171;SDS011;40076;52.354;4.970;2022-12-18T00:44:38;96.38;;;34.28;;
54171;SDS011;40076;52.354;4.970;2022-12-18T00:47:04;100.55;;;35.03;;
54171;SDS011;40076;52.354;4.970;2022-12-18T00:49:29;105.55;;;35.03;;
54171;SDS011;40076;52.354;4.970;2022-12-18T00:51:54;112.15;;;36.03;;
54171;SDS011;40076;52.354;4.970;2022-12-18T00:54:20;93.57;;;36.00;;
54171;SDS011;40076;52.354;4.970;2022-12-18T00:56:45;98.35;;;34.35;;
54171;SDS011;40076;52.354;4.970;2022-12-18T00:59:10;97.00;;;35.05;;
54171;SDS011;40076;52.354;4.970;2022-12-18T01:01:36;89.18;;;31.13;;
54171;SDS011;40076;52.354;4.970;2022-12-18T01:04:02;101.35;;;33.75;;
54171;SDS011;40076;52.354;4.970;2022-12-18T01:06:28;100.85;;;35.00;;
54171;SDS011;40076;52.354;4.970;2022-12-18T01:08:54;100.57;;;31.20;;
54171;SDS011;40076;52.354;4.970;2022-12-18T01:11:20;105.05;;;33.40;;
54171;SDS011;40076;52.354;4.970;2022-12-18T01:13:46;108.85;;;35.15;;
54171;SDS011;40076;52.354;4.970;2022-12-18T01:16:12;104.72;;;34.67;;
54171;SDS011;40076;52.354;4.970;2022-12-18T01:18:38;105.93;;;34.25;;
54171;SDS011;40076;52.354;4.970;2022-12-18T01:21:07;105.70;;;34.75;;
54171;SDS011;40076;52.354;4.970;2022-12-18T01:23:34;95.70;;;34.70;;
54171;SDS011;40076;52.354;4.970;2022-12-18T01:26:07;98.18;;;34.95;;
54171;SDS011;40076;52.354;4.970;2022-12-18T01:28:33;96.10;;;33.30;;
54171;SDS011;40076;52.354;4.970;2022-12-18T01:31:08;94.82;;;32.55;;
54171;SDS011;40076;52.354;4.970;2022-12-18T01:33:35;98.85;;;33.55;;
54171;SDS011;40076;52.354;4.970;2022-12-18T01:36:00;95.25;;;34.47;;
54171;SDS011;40076;52.354;4.970;2022-12-18T01:38:26;80.10;;;30.00;;
54171;SDS011;40076;52.354;4.970;2022-12-18T01:41:00;95.88;;;32.08;;
54171;SDS011;40076;52.354;4.970;2022-12-18T01:43:43;75.30;;;25.95;;
54171;SDS011;40076;52.354;4.970;2022-12-18T01:46:10;99.47;;;33.35;;
54171;SDS011;40076;52.354;4.970;2022-12-18T01:48:35;97.72;;;32.65;;
54171;SDS011;40076;52.354;4.970;2022-12-18T01:51:01;96.45;;;33.90;;
54171;SDS011;40076;52.354;4.970;2022-12-18T01:53:27;96.15;;;32.33;;
54171;SDS011;40076;52.354;4.970;2022-12-18T01:55:53;98.53;;;32.35;;
54171;SDS011;40076;52.354;4.970;2022-12-18T01:58:23;95.68;;;33.67;;
54171;SDS011;40076;52.354;4.970;2022-12-18T02:00:54;82.70;;;27.17;;
54171;SDS011;40076;52.354;4.970;2022-12-18T02:03:19;95.50;;;35.00;;
54171;SDS011;40076;52.354;4.970;2022-12-18T02:05:54;90.97;;;33.22;;
54171;SDS011;40076;52.354;4.970;2022-12-18T02:08:56;88.82;;;32.80;;
54171;SDS011;40076;52.354;4.970;2022-12-18T02:17:06;103.88;;;35.88;;
54171;SDS011;40076;52.354;4.970;2022-12-18T02:19:43;95.80;;;34.58;;
54171;SDS011;40076;52.354;4.970;2022-12-18T02:28:12;67.32;;;26.05;;
54171;SDS011;40076;52.354;4.970;2022-12-18T02:30:41;92.30;;;33.65;;
54171;SDS011;40076;52.354;4.970;2022-12-18T02:33:07;94.45;;;34.28;;
54171;SDS011;40076;52.354;4.970;2022-12-18T02:35:36;87.80;;;33.85;;
54171;SDS011;40076;52.354;4.970;2022-12-18T02:38:03;87.53;;;34.03;;
54171;SDS011;40076;52.354;4.970;2022-12-18T02:40:29;86.80;;;31.70;;
54171;SDS011;40076;52.354;4.970;2022-12-18T02:43:01;83.97;;;32.03;;
54171;SDS011;40076;52.354;4.970;2022-12-18T02:45:28;68.30;;;25.60;;
54171;SDS011;40076;52.354;4.970;2022-12-18T02:47:53;86.15;;;31.50;;
54171;SDS011;40076;52.354;4.970;2022-12-18T02:50:27;82.50;;;28.98;;
54171;SDS011;40076;52.354;4.970;2022-12-18T02:53:03;78.45;;;29.83;;
54171;SDS011;40076;52.354;4.970;2022-12-18T02:55:58;75.75;;;30.13;;
54171;SDS011;40076;52.354;4.970;2022-12-18T03:01:11;79.72;;;31.88;;
54171;SDS011;40076;52.354;4.970;2022-12-18T03:08:51;85.30;;;30.73;;
54171;SDS011;40076;52.354;4.970;2022-12-18T03:11:21;70.82;;;29.17;;
54171;SDS011;40076;52.354;4.970;2022-12-18T03:14:06;77.53;;;30.80;;
54171;SDS011;40076;52.354;4.970;2022-12-18T03:16:32;87.22;;;31.10;;
54171;SDS011;40076;52.354;4.970;2022-12-18T03:19:07;80.55;;;30.02;;
54171;SDS011;40076;52.354;4.970;2022-12-18T03:21:37;80.53;;;32.72;;
54171;SDS011;40076;52.354;4.970;2022-12-18T03:24:07;80.18;;;31.85;;
54171;SDS011;40076;52.354;4.970;2022-12-18T03:26:36;84.57;;;32.92;;
54171;SDS011;40076;52.354;4.970;2022-12-18T03:29:09;79.03;;;30.98;;
54171;SDS011;40076;52.354;4.970;2022-12-18T03:31:41;81.88;;;31.02;;
54171;SDS011;40076;52.354;4.970;2022-12-18T03:34:14;81.90;;;31.33;;
54171;SDS011;40076;52.354;4.970;2022-12-18T03:36:46;65.05;;;25.92;;
54171;SDS011;40076;52.354;4.970;2022-12-18T03:39:11;84.55;;;33.17;;
54171;SDS011;40076;52.354;4.970;2022-12-18T03:44:28;79.75;;;32.33;;
54171;SDS011;40076;52.354;4.970;2022-12-18T03:49:50;82.18;;;33.25;;
54171;SDS011;40076;52.354;4.970;2022-12-18T03:52:33;80.28;;;32.28;;
54171;SDS011;40076;52.354;4.970;2022-12-18T03:55:03;83.55;;;32.67;;
54171;SDS011;40076;52.354;4.970;2022-12-18T03:57:31;76.60;;;31.77;;
54171;SDS011;40076;52.354;4.970;2022-12-18T04:00:00;76.68;;;31.45;;
54171;SDS011;40076;52.354;4.970;2022-12-18T04:02:30;59.87;;;24.67;;
54171;SDS011;40076;52.354;4.970;2022-12-18T04:04:58;77.30;;;29.77;;
54171;SDS011;40076;52.354;4.970;2022-12-18T04:07:26;75.10;;;31.42;;
54171;SDS011;40076;52.354;4.970;2022-12-18T04:09:54;78.57;;;30.45;;
54171;SDS011;40076;52.354;4.970;2022-12-18T04:12:23;73.82;;;29.88;;
54171;SDS011;40076;52.354;4.970;2022-12-18T04:14:53;69.90;;;31.15;;
54171;SDS011;40076;52.354;4.970;2022-12-18T04:17:19;73.45;;;31.50;;
54171;SDS011;40076;52.354;4.970;2022-12-18T04:19:44;74.50;;;31.00;;
54171;SDS011;40076;52.354;4.970;2022-12-18T04:22:10;73.07;;;31.52;;
54171;SDS011;40076;52.354;4.970;2022-12-18T04:24:35;79.22;;;31.23;;
54171;SDS011;40076;52.354;4.970;2022-12-18T04:27:01;71.05;;;30.27;;
54171;SDS011;40076;52.354;4.970;2022-12-18T04:29:27;73.07;;;30.15;;
54171;SDS011;40076;52.354;4.970;2022-12-18T04:31:53;71.10;;;29.98;;
54171;SDS011;40076;52.354;4.970;2022-12-18T04:34:19;65.72;;;28.65;;
54171;SDS011;40076;52.354;4.970;2022-12-18T04:36:45;71.80;;;30.15;;
54171;SDS011;40076;52.354;4.970;2022-12-18T04:39:10;73.32;;;29.77;;
54171;SDS011;40076;52.354;4.970;2022-12-18T04:41:36;72.15;;;31.23;;
54171;SDS011;40076;52.354;4.970;2022-12-18T04:44:01;69.10;;;29.83;;
54171;SDS011;40076;52.354;4.970;2022-12-18T04:46:26;72.10;;;31.48;;
54171;SDS011;40076;52.354;4.970;2022-12-18T04:48:52;68.72;;;28.35;;
54171;SDS011;40076;52.354;4.970;2022-12-18T04:51:17;69.00;;;29.23;;
54171;SDS011;40076;52.354;4.970;2022-12-18T04:53:42;66.28;;;29.33;;
54171;SDS011;40076;52.354;4.970;2022-12-18T04:56:09;72.38;;;30.40;;
54171;SDS011;40076;52.354;4.970;2022-12-18T04:58:37;75.65;;;29.38;;
54171;SDS011;40076;52.354;4.970;2022-12-18T05:01:03;69.95;;;30.85;;
54171;SDS011;40076;52.354;4.970;2022-12-18T05:03:29;68.10;;;29.75;;
54171;SDS011;40076;52.354;4.970;2022-12-18T05:05:54;62.35;;;28.65;;
54171;SDS011;40076;52.354;4.970;2022-12-18T05:08:19;69.03;;;28.20;;
54171;SDS011;40076;52.354;4.970;2022-12-18T05:10:45;62.60;;;27.70;;
54171;SDS011;40076;52.354;4.970;2022-12-18T05:13:10;64.32;;;29.70;;
54171;SDS011;40076;52.354;4.970;2022-12-18T05:15:36;61.03;;;27.48;;
54171;SDS011;40076;52.354;4.970;2022-12-18T05:18:03;62.55;;;29.10;;
54171;SDS011;40076;52.354;4.970;2022-12-18T05:20:28;63.83;;;27.98;;
54171;SDS011;40076;52.354;4.970;2022-12-18T05:22:54;61.78;;;26.95;;
54171;SDS011;40076;52.354;4.970;2022-12-18T05:25:19;59.17;;;28.63;;
54171;SDS011;40076;52.354;4.970;2022-12-18T05:27:45;60.92;;;28.08;;
54171;SDS011;40076;52.354;4.970;2022-12-18T05:30:11;57.20;;;27.17;;
54171;SDS011;40076;52.354;4.970;2022-12-18T05:32:37;56.50;;;26.25;;
54171;SDS011;40076;52.354;4.970;2022-12-18T05:35:03;59.83;;;28.55;;
54171;SDS011;40076;52.354;4.970;2022-12-18T05:37:30;64.85;;;29.25;;
54171;SDS011;40076;52.354;4.970;2022-12-18T05:39:55;69.00;;;28.30;;
54171;SDS011;40076;52.354;4.970;2022-12-18T05:42:21;58.42;;;30.00;;
54171;SDS011;40076;52.354;4.970;2022-12-18T05:44:46;60.40;;;29.65;;
54171;SDS011;40076;52.354;4.970;2022-12-18T05:47:12;59.17;;;28.63;;
54171;SDS011;40076;52.354;4.970;2022-12-18T05:49:37;66.40;;;29.98;;
54171;SDS011;40076;52.354;4.970;2022-12-18T05:52:02;65.22;;;30.63;;
54171;SDS011;40076;52.354;4.970;2022-12-18T05:54:28;59.30;;;27.58;;
54171;SDS011;40076;52.354;4.970;2022-12-18T05:56:53;60.90;;;29.00;;
54171;SDS011;40076;52.354;4.970;2022-12-18T05:59:19;61.38;;;27.42;;
54171;SDS011;40076;52.354;4.970;2022-12-18T06:01:44;51.65;;;26.38;;
54171;SDS011;40076;52.354;4.970;2022-12-18T06:04:10;60.75;;;28.55;;
54171;SDS011;40076;52.354;4.970;2022-12-18T06:06:35;52.67;;;26.35;;
54171;SDS011;40076;52.354;4.970;2022-12-18T06:09:01;58.15;;;27.98;;
54171;SDS011;40076;52.354;4.970;2022-12-18T06:11:33;54.03;;;26.75;;
54171;SDS011;40076;52.354;4.970;2022-12-18T06:14:02;57.38;;;27.00;;
54171;SDS011;40076;52.354;4.970;2022-12-18T06:16:28;52.90;;;25.50;;
54171;SDS011;40076;52.354;4.970;2022-12-18T06:19:00;54.22;;;26.23;;
54171;SDS011;40076;52.354;4.970;2022-12-18T06:21:27;49.30;;;24.05;;
54171;SDS011;40076;52.354;4.970;2022-12-18T06:23:53;53.15;;;24.85;;
54171;SDS011;40076;52.354;4.970;2022-12-18T06:26:19;54.53;;;25.58;;
54171;SDS011;40076;52.354;4.970;2022-12-18T06:28:44;46.40;;;24.50;;
54171;SDS011;40076;52.354;4.970;2022-12-18T06:31:10;48.92;;;24.73;;
54171;SDS011;40076;52.354;4.970;2022-12-18T06:33:36;44.22;;;23.70;;
54171;SDS011;40076;52.354;4.970;2022-12-18T06:36:06;51.28;;;23.88;;
54171;SDS011;40076;52.354;4.970;2022-12-18T06:38:34;47.97;;;23.00;;
54171;SDS011;40076;52.354;4.970;2022-12-18T06:41:00;48.00;;;23.70;;
54171;SDS011;40076;52.354;4.970;2022-12-18T06:43:25;47.13;;;22.75;;
54171;SDS011;40076;52.354;4.970;2022-12-18T06:45:51;46.38;;;22.58;;
54171;SDS011;40076;52.354;4.970;2022-12-18T06:48:24;46.15;;;21.92;;
54171;SDS011;40076;52.354;4.970;2022-12-18T06:50:50;47.92;;;22.63;;
54171;SDS011;40076;52.354;4.970;2022-12-18T06:53:15;44.55;;;21.65;;
54171;SDS011;40076;52.354;4.970;2022-12-18T06:55:40;44.13;;;22.02;;
54171;SDS011;40076;52.354;4.970;2022-12-18T06:58:06;41.03;;;20.52;;
54171;SDS011;40076;52.354;4.970;2022-12-18T07:00:31;40.92;;;20.73;;
54171;SDS011;40076;52.354;4.970;2022-12-18T07:02:56;40.67;;;19.67;;
54171;SDS011;40076;52.354;4.970;2022-12-18T07:05:22;41.53;;;19.92;;
54171;SDS011;40076;52.354;4.970;2022-12-18T07:07:47;41.47;;;19.77;;
54171;SDS011;40076;52.354;4.970;2022-12-18T07:10:13;37.92;;;18.48;;
54171;SDS011;40076;52.354;4.970;2022-12-18T07:12:38;35.00;;;18.00;;
54171;SDS011;40076;52.354;4.970;2022-12-18T07:15:04;35.92;;;18.45;;
54171;SDS011;40076;52.354;4.970;2022-12-18T07:17:29;35.17;;;18.35;;
54171;SDS011;40076;52.354;4.970;2022-12-18T07:19:55;36.60;;;19.33;;
54171;SDS011;40076;52.354;4.970;2022-12-18T07:22:20;36.63;;;18.45;;
54171;SDS011;40076;52.354;4.970;2022-12-18T07:24:46;42.17;;;18.88;;
54171;SDS011;40076;52.354;4.970;2022-12-18T07:27:14;34.95;;;18.27;;
54171;SDS011;40076;52.354;4.970;2022-12-18T07:29:40;38.38;;;19.65;;
54171;SDS011;40076;52.354;4.970;2022-12-18T07:32:05;36.50;;;17.85;;
54171;SDS011;40076;52.354;4.970;2022-12-18T07:34:31;37.28;;;18.55;;
54171;SDS011;40076;52.354;4.970;2022-12-18T07:36:57;36.88;;;18.55;;
54171;SDS011;40076;52.354;4.970;2022-12-18T07:39:22;36.90;;;18.27;;
54171;SDS011;40076;52.354;4.970;2022-12-18T07:41:48;40.53;;;18.45;;
54171;SDS011;40076;52.354;4.970;2022-12-18T07:44:33;37.08;;;17.73;;
54171;SDS011;40076;52.354;4.970;2022-12-18T07:46:58;33.80;;;17.75;;
54171;SDS011;40076;52.354;4.970;2022-12-18T07:49:24;31.90;;;17.00;;
54171;SDS011;40076;52.354;4.970;2022-12-18T07:51:49;35.95;;;17.08;;
54171;SDS011;40076;52.354;4.970;2022-12-18T07:54:15;32.63;;;16.30;;
54171;SDS011;40076;52.354;4.970;2022-12-18T07:56:40;34.35;;;17.42;;
54171;SDS011;40076;52.354;4.970;2022-12-18T07:59:07;32.42;;;17.05;;
54171;SDS011;40076;52.354;4.970;2022-12-18T08:01:33;32.28;;;16.60;;
54171;SDS011;40076;52.354;4.970;2022-12-18T08:03:58;33.13;;;16.23;;
54171;SDS011;40076;52.354;4.970;2022-12-18T08:06:27;27.77;;;15.75;;
54171;SDS011;40076;52.354;4.970;2022-12-18T08:08:52;33.63;;;16.02;;
54171;SDS011;40076;52.354;4.970;2022-12-18T08:11:19;31.05;;;16.33;;
54171;SDS011;40076;52.354;4.970;2022-12-18T08:13:44;33.75;;;16.08;;
54171;SDS011;40076;52.354;4.970;2022-12-18T08:16:10;30.60;;;15.55;;
54171;SDS011;40076;52.354;4.970;2022-12-18T08:18:36;32.40;;;16.08;;
54171;SDS011;40076;52.354;4.970;2022-12-18T08:23:55;21.77;;;11.60;;
54171;SDS011;40076;52.354;4.970;2022-12-18T08:26:24;28.85;;;15.57;;
54171;SDS011;40076;52.354;4.970;2022-12-18T08:28:50;33.28;;;16.70;;
54171;SDS011;40076;52.354;4.970;2022-12-18T08:31:17;29.70;;;16.13;;
54171;SDS011;40076;52.354;4.970;2022-12-18T08:33:43;32.55;;;16.35;;
54171;SDS011;40076;52.354;4.970;2022-12-18T08:36:14;29.08;;;16.10;;
54171;SDS011;40076;52.354;4.970;2022-12-18T08:38:39;30.98;;;16.73;;
54171;SDS011;40076;52.354;4.970;2022-12-18T08:41:06;31.25;;;16.45;;
54171;SDS011;40076;52.354;4.970;2022-12-18T08:43:33;30.50;;;15.93;;
54171;SDS011;40076;52.354;4.970;2022-12-18T08:46:18;32.17;;;16.42;;
54171;SDS011;40076;52.354;4.970;2022-12-18T08:48:44;30.23;;;16.73;;
54171;SDS011;40076;52.354;4.970;2022-12-18T08:51:10;29.30;;;16.42;;
54171;SDS011;40076;52.354;4.970;2022-12-18T08:53:36;28.98;;;15.85;;
54171;SDS011;40076;52.354;4.970;2022-12-18T08:56:02;31.77;;;17.60;;
54171;SDS011;40076;52.354;4.970;2022-12-18T08:58:27;28.98;;;16.00;;
54171;SDS011;40076;52.354;4.970;2022-12-18T09:00:53;26.80;;;15.00;;
54171;SDS011;40076;52.354;4.970;2022-12-18T09:03:28;27.83;;;15.32;;
54171;SDS011;40076;52.354;4.970;2022-12-18T09:05:54;30.23;;;16.02;;
54171;SDS011;40076;52.354;4.970;2022-12-18T09:08:19;27.98;;;16.23;;
54171;SDS011;40076;52.354;4.970;2022-12-18T09:10:45;30.70;;;15.88;;
54171;SDS011;40076;52.354;4.970;2022-12-18T09:13:13;25.50;;;14.63;;
54171;SDS011;40076;52.354;4.970;2022-12-18T09:15:41;29.58;;;16.27;;
54171;SDS011;40076;52.354;4.970;2022-12-18T09:18:10;29.20;;;15.95;;
54171;SDS011;40076;52.354;4.970;2022-12-18T09:20:36;26.50;;;15.85;;
54171;SDS011;40076;52.354;4.970;2022-12-18T09:23:02;30.15;;;16.00;;
54171;SDS011;40076;52.354;4.970;2022-12-18T09:25:29;30.60;;;16.35;;
54171;SDS011;40076;52.354;4.970;2022-12-18T09:28:09;24.98;;;15.23;;
54171;SDS011;40076;52.354;4.970;2022-12-18T09:30:39;28.35;;;16.35;;
54171;SDS011;40076;52.354;4.970;2022-12-18T09:33:06;30.35;;;16.88;;
54171;SDS011;40076;52.354;4.970;2022-12-18T09:35:32;29.17;;;14.88;;
54171;SDS011;40076;52.354;4.970;2022-12-18T09:38:00;30.45;;;16.90;;
54171;SDS011;40076;52.354;4.970;2022-12-18T09:40:26;31.52;;;17.38;;
54171;SDS011;40076;52.354;4.970;2022-12-18T09:42:59;30.33;;;16.05;;
54171;SDS011;40076;52.354;4.970;2022-12-18T09:45:28;27.45;;;16.55;;
54171;SDS011;40076;52.354;4.970;2022-12-18T09:48:02;30.13;;;16.08;;
54171;SDS011;40076;52.354;4.970;2022-12-18T09:50:32;33.38;;;18.05;;
54171;SDS011;40076;52.354;4.970;2022-12-18T09:53:09;29.05;;;15.98;;
54171;SDS011;40076;52.354;4.970;2022-12-18T09:55:44;29.55;;;16.48;;
54171;SDS011;40076;52.354;4.970;2022-12-18T09:59:02;30.85;;;16.27;;
54171;SDS011;40076;52.354;4.970;2022-12-18T10:01:11;22.00;;;11.93;;
54171;SDS011;40076;52.354;4.970;2022-12-18T10:03:39;23.45;;;14.00;;
54171;SDS011;40076;52.354;4.970;2022-12-18T10:06:25;31.88;;;16.58;;
54171;SDS011;40076;52.354;4.970;2022-12-18T10:22:03;24.95;;;14.13;;
54171;SDS011;40076;52.354;4.970;2022-12-18T10:24:49;27.77;;;15.45;;
54171;SDS011;40076;52.354;4.970;2022-12-18T10:27:46;26.15;;;14.65;;
54171;SDS011;40076;52.354;4.970;2022-12-18T10:30:13;24.15;;;14.77;;
54171;SDS011;40076;52.354;4.970;2022-12-18T10:32:40;28.00;;;15.32;;
54171;SDS011;40076;52.354;4.970;2022-12-18T10:35:07;23.77;;;14.18;;
54171;SDS011;40076;52.354;4.970;2022-12-18T10:37:59;27.48;;;15.25;;
54171;SDS011;40076;52.354;4.970;2022-12-18T10:40:29;26.30;;;14.73;;
54171;SDS011;40076;52.354;4.970;2022-12-18T10:43:05;28.50;;;15.50;;
54171;SDS011;40076;52.354;4.970;2022-12-18T10:45:38;22.42;;;12.48;;
54171;SDS011;40076;52.354;4.970;2022-12-18T10:48:04;25.42;;;14.38;;
54171;SDS011;40076;52.354;4.970;2022-12-18T10:50:42;25.05;;;15.55;;
54171;SDS011;40076;52.354;4.970;2022-12-18T10:53:13;30.08;;;15.45;;
54171;SDS011;40076;52.354;4.970;2022-12-18T10:55:44;26.58;;;15.20;;
54171;SDS011;40076;52.354;4.970;2022-12-18T10:58:28;26.23;;;15.40;;
54171;SDS011;40076;52.354;4.970;2022-12-18T11:01:13;26.33;;;14.80;;
54171;SDS011;40076;52.354;4.970;2022-12-18T11:06:20;27.42;;;14.82;;
54171;SDS011;40076;52.354;4.970;2022-12-18T11:08:59;26.73;;;13.95;;
54171;SDS011;40076;52.354;4.970;2022-12-18T11:11:26;26.77;;;14.85;;
54171;SDS011;40076;52.354;4.970;2022-12-18T11:16:30;27.10;;;15.20;;
54171;SDS011;40076;52.354;4.970;2022-12-18T11:19:10;26.50;;;14.10;;
54171;SDS011;40076;52.354;4.970;2022-12-18T11:21:45;25.75;;;14.93;;
54171;SDS011;40076;52.354;4.970;2022-12-18T11:24:32;28.17;;;15.43;;
54171;SDS011;40076;52.354;4.970;2022-12-18T11:27:00;26.50;;;15.82;;
54171;SDS011;40076;52.354;4.970;2022-12-18T11:29:35;30.23;;;15.32;;
54171;SDS011;40076;52.354;4.970;2022-12-18T11:32:19;23.00;;;13.98;;
54171;SDS011;40076;52.354;4.970;2022-12-18T11:34:53;25.90;;;14.95;;
54171;SDS011;40076;52.354;4.970;2022-12-18T11:37:24;19.50;;;11.18;;
54171;SDS011;40076;52.354;4.970;2022-12-18T11:40:06;27.27;;;15.73;;
54171;SDS011;40076;52.354;4.970;2022-12-18T11:42:45;26.45;;;15.18;;
54171;SDS011;40076;52.354;4.970;2022-12-18T11:45:24;24.95;;;13.60;;
54171;SDS011;40076;52.354;4.970;2022-12-18T11:47:55;25.08;;;14.85;;
54171;SDS011;40076;52.354;4.970;2022-12-18T11:52:58;26.38;;;14.93;;
54171;SDS011;40076;52.354;4.970;2022-12-18T12:00:56;24.30;;;14.52;;
54171;SDS011;40076;52.354;4.970;2022-12-18T12:06:15;26.05;;;15.73;;
54171;SDS011;40076;52.354;4.970;2022-12-18T12:11:50;24.17;;;15.00;;
54171;SDS011;40076;52.354;4.970;2022-12-18T12:17:26;17.95;;;10.68;;
54171;SDS011;40076;52.354;4.970;2022-12-18T12:20:32;27.08;;;13.52;;
54171;SDS011;40076;52.354;4.970;2022-12-18T12:29:05;28.40;;;16.83;;
54171;SDS011;40076;52.354;4.970;2022-12-18T12:38:44;23.60;;;13.00;;
54171;SDS011;40076;52.354;4.970;2022-12-18T12:41:04;25.13;;;14.23;;
54171;SDS011;40076;52.354;4.970;2022-12-18T12:43:55;24.35;;;13.30;;
54171;SDS011;40076;52.354;4.970;2022-12-18T12:46:23;24.05;;;14.05;;
54171;SDS011;40076;52.354;4.970;2022-12-18T12:49:03;21.33;;;13.00;;
54171;SDS011;40076;52.354;4.970;2022-12-18T12:51:43;25.48;;;13.73;;
54171;SDS011;40076;52.354;4.970;2022-12-18T12:54:21;21.02;;;12.20;;
54171;SDS011;40076;52.354;4.970;2022-12-18T12:56:53;22.40;;;13.52;;
54171;SDS011;40076;52.354;4.970;2022-12-18T12:59:27;23.52;;;13.70;;
54171;SDS011;40076;52.354;4.970;2022-12-18T13:02:17;23.55;;;14.27;;
54171;SDS011;40076;52.354;4.970;2022-12-18T13:06:07;23.25;;;12.93;;
54171;SDS011;40076;52.354;4.970;2022-12-18T13:08:30;22.30;;;13.10;;
54171;SDS011;40076;52.354;4.970;2022-12-18T13:10:57;24.10;;;13.55;;
54171;SDS011;40076;52.354;4.970;2022-12-18T13:16:18;18.75;;;10.90;;
54171;SDS011;40076;52.354;4.970;2022-12-18T13:18:51;22.70;;;13.63;;
54171;SDS011;40076;52.354;4.970;2022-12-18T13:21:30;24.80;;;13.35;;
54171;SDS011;40076;52.354;4.970;2022-12-18T13:24:20;24.30;;;13.13;;
54171;SDS011;40076;52.354;4.970;2022-12-18T13:26:54;22.60;;;13.73;;
54171;SDS011;40076;52.354;4.970;2022-12-18T13:32:26;22.80;;;13.57;;
54171;SDS011;40076;52.354;4.970;2022-12-18T13:37:45;24.75;;;14.25;;
54171;SDS011;40076;52.354;4.970;2022-12-18T13:40:53;25.88;;;14.50;;
54171;SDS011;40076;52.354;4.970;2022-12-18T13:52:38;25.10;;;13.77;;
54171;SDS011;40076;52.354;4.970;2022-12-18T13:55:11;18.83;;;11.05;;
54171;SDS011;40076;52.354;4.970;2022-12-18T13:58:02;22.58;;;12.85;;
54171;SDS011;40076;52.354;4.970;2022-12-18T14:18:56;20.83;;;12.50;;
54171;SDS011;40076;52.354;4.970;2022-12-18T14:21:32;21.92;;;12.43;;
54171;SDS011;40076;52.354;4.970;2022-12-18T14:30:52;23.17;;;11.98;;
54171;SDS011;40076;52.354;4.970;2022-12-18T14:33:25;24.20;;;13.82;;
54171;SDS011;40076;52.354;4.970;2022-12-18T14:36:54;23.88;;;13.88;;
54171;SDS011;40076;52.354;4.970;2022-12-18T14:39:21;18.80;;;11.38;;
54171;SDS011;40076;52.354;4.970;2022-12-18T14:41:48;23.00;;;13.40;;
54171;SDS011;40076;52.354;4.970;2022-12-18T14:44:16;22.17;;;12.75;;
54171;SDS011;40076;52.354;4.970;2022-12-18T14:46:42;21.10;;;13.23;;
54171;SDS011;40076;52.354;4.970;2022-12-18T14:49:24;22.95;;;13.63;;
54171;SDS011;40076;52.354;4.970;2022-12-18T14:51:57;22.23;;;13.00;;
54171;SDS011;40076;52.354;4.970;2022-12-18T14:54:28;20.50;;;10.60;;
54171;SDS011;40076;52.354;4.970;2022-12-18T14:59:45;22.52;;;13.00;;
54171;SDS011;40076;52.354;4.970;2022-12-18T15:04:37;28.05;;;14.75;;
54171;SDS011;40076;52.354;4.970;2022-12-18T15:10:00;25.60;;;14.60;;
54171;SDS011;40076;52.354;4.970;2022-12-18T15:12:36;25.17;;;13.70;;
54171;SDS011;40076;52.354;4.970;2022-12-18T15:15:05;24.27;;;13.80;;
54171;SDS011;40076;52.354;4.970;2022-12-18T15:17:56;24.67;;;14.65;;
54171;SDS011;40076;52.354;4.970;2022-12-18T15:20:25;25.70;;;14.40;;
54171;SDS011;40076;52.354;4.970;2022-12-18T15:22:53;24.30;;;14.27;;
54171;SDS011;40076;52.354;4.970;2022-12-18T15:25:26;24.50;;;15.02;;
54171;SDS011;40076;52.354;4.970;2022-12-18T15:30:28;23.42;;;13.85;;
54171;SDS011;40076;52.354;4.970;2022-12-18T15:35:47;23.13;;;13.70;;
54171;SDS011;40076;52.354;4.970;2022-12-18T15:38:21;24.40;;;14.93;;
54171;SDS011;40076;52.354;4.970;2022-12-18T15:40:47;24.27;;;13.77;;
54171;SDS011;40076;52.354;4.970;2022-12-18T15:43:12;24.27;;;13.65;;
54171;SDS011;40076;52.354;4.970;2022-12-18T15:45:56;23.88;;;14.07;;
54171;SDS011;40076;52.354;4.970;2022-12-18T15:48:21;24.77;;;14.88;;
54171;SDS011;40076;52.354;4.970;2022-12-18T15:50:49;25.92;;;14.73;;
54171;SDS011;40076;52.354;4.970;2022-12-18T15:53:17;23.38;;;13.85;;
54171;SDS011;40076;52.354;4.970;2022-12-18T15:55:43;25.55;;;14.93;;
54171;SDS011;40076;52.354;4.970;2022-12-18T15:58:26;23.58;;;14.20;;
54171;SDS011;40076;52.354;4.970;2022-12-18T16:00:52;25.00;;;14.40;;
54171;SDS011;40076;52.354;4.970;2022-12-18T16:03:19;24.58;;;14.32;;
54171;SDS011;40076;52.354;4.970;2022-12-18T16:05:45;25.65;;;14.23;;
54171;SDS011;40076;52.354;4.970;2022-12-18T16:08:10;24.33;;;15.05;;
54171;SDS011;40076;52.354;4.970;2022-12-18T16:10:39;30.95;;;16.73;;
54171;SDS011;40076;52.354;4.970;2022-12-18T16:13:04;25.67;;;15.57;;
54171;SDS011;40076;52.354;4.970;2022-12-18T16:15:31;24.80;;;15.00;;
54171;SDS011;40076;52.354;4.970;2022-12-18T16:17:56;23.83;;;14.40;;
54171;SDS011;40076;52.354;4.970;2022-12-18T16:20:22;26.42;;;15.00;;
54171;SDS011;40076;52.354;4.970;2022-12-18T16:22:47;29.40;;;15.93;;
54171;SDS011;40076;52.354;4.970;2022-12-18T16:25:24;26.17;;;15.35;;
54171;SDS011;40076;52.354;4.970;2022-12-18T16:31:01;23.20;;;14.70;;
54171;SDS011;40076;52.354;4.970;2022-12-18T16:33:30;24.80;;;15.77;;
54171;SDS011;40076;52.354;4.970;2022-12-18T16:35:58;27.45;;;15.18;;
54171;SDS011;40076;52.354;4.970;2022-12-18T16:38:23;24.55;;;14.13;;
54171;SDS011;40076;52.354;4.970;2022-12-18T16:40:48;26.40;;;15.07;;
54171;SDS011;40076;52.354;4.970;2022-12-18T16:43:33;24.90;;;14.73;;
54171;SDS011;40076;52.354;4.970;2022-12-18T16:45:58;26.67;;;16.70;;
54171;SDS011;40076;52.354;4.970;2022-12-18T16:48:24;27.35;;;16.08;;
54171;SDS011;40076;52.354;4.970;2022-12-18T16:50:58;28.58;;;16.80;;
54171;SDS011;40076;52.354;4.970;2022-12-18T16:53:26;27.50;;;15.70;;